Wales, Wisconsin
Current Conditions -  °F | °C
As of 9:15 AM on Monday 24 Nov 2014 (Local Time) from KUES Reporting Station
Haze Haze  
Wind Chill: 30°   Ceiling: 500
Heat Index: 37°   Visibility: 2.5mi
Dew Point: 37°   Wind: 12mph
Humidity: 100%   Direction: 270°W
Pressure: 29.1"   Gusts: 18mph
Location:  43°N, 88.38°W
Report Text: KUES 241515Z 27010G16KT 2 1/2SM BR OVC005 03/03 A2910
Loading
Personal Weather Stations






























Interactive Weather Map New forecast layout! Learn more

10-Day Weather Forecast

Advertisements
Track Severe Weather on mobile